Disclaimer

Please do not use the information listed here in-flight or in-navigation, as they are not provided to us by the airports but are provided by volunteers, so they might be outdated.

Search


Regions


Airport information page

Radio informations:
Tower (TWR) - 118.6 MHz
Approach (APP) - 127.2 MHz

Airport informations:
Latitude: 17° 49' 58.35" S
Longitude: 025° 09' 44.64" E
Elevation: 3289 feet - 1002 meters
Operating hours: Remarks
Operating agency: Civil government, landing fees and diplomatic clearance may be required
Timezone: UTC+2
Fuel: Jet A1, without icing nhibitor.

100/130 MIL Spec, low lead, aviation gasoline (BLUE)

Runway information:
08/26 - 6562 x 98 feet< - >2000 x 30 meters

Recent METARs:
FBKE 130300Z 13010KT CAVOK 22/01 Q1019
FBKE 130400Z 12010KT CAVOK 21/03 Q1020

Airport on the map: